Latest Weather Observations for Port Augusta

IDS60801

Issued at 7:05 pm CDT Sunday 23 November 2014 (issued every 30 minutes, with the page automatically refreshed every 10 minutes)

About weather observations | Map of weather stations | Latest weather observations for SA | Other Formats
Station Details ID: 018201 Name: PORT AUGUSTA AERO Lat: -32.51 Lon: 137.72 Height: 13.97 m
Data from the previous 72 hours. | See also: Recent months at Port Augusta
Date/Time
CDT
Temp
°C
App
Temp
°C
Dew
Point
Rel
Hum
%
Delta-T
°C
Wind Press
QNH
hPa
Press
MSL
hPa
Rain
since 9 am
mm
Dir
 
Spd
km/h
Gust
km/h
Spd
kts
Gust
kts
23/07:00pm 31.5 30.1 13.3 33 10.9 SW 13 19 7 10 1005.4 - 0.8
23/06:30pm 32.5 31.3 12.7 30 11.8 W 11 15 6 8 1005.3 - 0.6
23/06:00pm 31.7 30.8 12.5 31 11.4 W 9 17 5 9 1005.4 1005.4 0.6
23/05:30pm 30.8 30.4 14.0 36 10.2 NE 9 17 5 9 1005.0 - 0.6
23/05:00pm 30.7 28.5 14.8 38 9.7 NNE 20 30 11 16 1005.4 - 0.6
23/04:57pm 30.9 28.9 14.9 37 9.8 NNE 19 30 10 16 1005.5 - 0.6
23/04:30pm 25.9 23.6 16.7 57 5.7 ENE 24 35 13 19 1005.8 - 0.6
23/04:27pm 26.0 24.4 16.5 55 5.9 E 20 35 11 19 1005.9 - 0.6
23/04:00pm 26.9 25.6 16.8 54 6.3 ENE 19 22 10 12 1008.0 - 0.6
23/03:30pm 28.9 26.8 13.6 39 9.1 W 17 32 9 17 1009.1 - 0.6
23/03:00pm 28.9 26.1 14.3 40 8.8 N 22 30 12 16 1010.3 1010.3 0.6
23/02:30pm 24.3 22.7 17.5 66 4.2 ENE 22 26 12 14 1009.4 - 0.6
23/02:29pm 24.4 23.1 18.1 68 4.0 ENE 22 26 12 14 1009.5 - 0.2
23/02:00pm 29.2 25.3 12.2 35 9.9 WNW 24 32 13 17 1011.5 - 0.0
23/01:30pm 29.0 24.3 7.6 26 11.6 W 22 32 12 17 1011.9 - 0.0
23/01:00pm 28.6 25.4 8.3 28 11.1 W 15 22 8 12 1012.0 - 0.0
23/12:30pm 29.7 25.2 7.0 24 12.2 W 20 28 11 15 1012.0 - 0.0
23/12:00pm 28.6 25.0 8.3 28 11.1 ESE 17 22 9 12 1010.5 1010.5 0.0
23/11:30am 29.7 28.2 7.0 24 12.2 ESE 4 9 2 5 1011.6 - 0.0
23/11:00am 29.2 26.6 7.7 26 11.7 SE 11 15 6 8 1010.7 - 0.0
23/10:30am 28.3 26.5 9.6 31 10.4 SE 9 17 5 9 1011.0 - 0.0
23/10:00am 25.8 23.9 11.9 42 8.0 SE 13 20 7 11 1011.2 - 0.0
23/09:30am 23.5 20.9 11.9 48 6.6 ESE 17 22 9 12 1011.5 - 0.0
23/09:00am 22.9 19.8 11.6 49 6.3 ESE 19 22 10 12 1011.9 1011.9 0.0
23/08:30am 21.1 18.0 13.5 62 4.4 ESE 22 26 12 14 1011.9 - 0.0
23/08:00am 19.9 16.9 13.6 67 3.6 SE 22 28 12 15 1011.7 - 0.0
23/07:30am 19.2 16.2 13.6 70 3.2 SE 22 32 12 17 1011.5 - 0.0
23/07:00am 18.8 14.9 13.2 70 3.2 SSE 26 35 14 19 1011.4 - 0.0
23/06:30am 17.8 13.7 12.7 72 2.8 SSE 26 33 14 18 1010.9 - 0.0
23/06:00am 18.0 13.7 12.2 69 3.2 SSE 26 33 14 18 1010.8 1010.8 0.0
23/05:30am 17.9 13.6 11.9 68 3.3 SSE 26 33 14 18 1010.5 - 0.0
23/05:00am 18.1 14.0 11.4 65 3.7 SSE 24 37 13 20 1010.4 - 0.0
23/04:30am 18.4 14.2 11.2 63 3.9 S 24 32 13 17 1011.0 - 0.0
23/04:00am 18.6 14.1 11.4 63 3.9 S 26 35 14 19 1010.9 - 0.0
23/03:30am 18.5 14.7 13.6 73 2.8 S 26 35 14 19 1011.2 - 0.0
23/03:00am 18.8 14.2 13.4 71 3.1 S 30 41 16 22 1010.9 1010.9 0.0
23/02:30am 19.1 15.4 13.9 72 3.0 S 26 32 14 17 1011.6 - 0.0
23/02:00am 19.5 16.2 14.1 71 3.1 SSE 24 33 13 18 1011.9 - 0.0
23/01:30am 19.9 16.2 13.8 68 3.5 S 26 32 14 17 1011.5 - 0.0
23/01:00am 20.2 16.3 13.4 65 3.9 S 26 33 14 18 1011.5 - 0.0
23/12:30am 20.8 16.4 12.8 60 4.5 S 28 35 15 19 1011.5 - 0.0
23/12:00am 20.5 16.8 11.4 56 5.0 SSW 22 30 12 16 1011.5 1011.5 0.0
 
Date/Time
CDT
Temp
°C
App
Temp
°C
Dew
Point
Rel
Hum
%
Delta-T
°C
Wind Press
QNH
hPa
Press
MSL
hPa
Rain
since 9 am
mm
Dir
 
Spd
km/h
Gust
km/h
Spd
kts
Gust
kts
22/11:30pm 21.3 16.6 10.8 51 5.8 SSW 26 35 14 19 1011.5 - 0.0
22/11:00pm 22.1 16.8 9.9 46 6.6 SSW 28 41 15 22 1011.1 - 0.0
22/10:30pm 23.5 17.2 9.1 40 7.8 S 32 41 17 22 1010.6 - 0.0
22/10:00pm 23.8 16.8 10.1 42 7.5 S 37 48 20 26 1010.3 - 0.0
22/09:30pm 23.9 16.9 11.2 44 7.1 S 39 50 21 27 1009.8 - 0.0
22/09:00pm 24.1 18.5 12.1 47 6.8 SSE 33 44 18 24 1009.0 1009.0 0.0
22/08:30pm 25.0 18.4 12.6 46 7.1 SSE 39 54 21 29 1008.1 - 0.0
22/08:17pm 25.5 19.6 12.4 44 7.5 SSE 35 57 19 31 1007.8 - 0.0
22/08:00pm 25.9 19.2 12.4 43 7.8 SSE 39 50 21 27 1007.4 - 0.0
22/07:30pm 25.4 19.3 14.2 50 6.6 SSE 39 52 21 28 1006.7 - 0.0
22/07:00pm 26.0 20.5 15.7 53 6.3 SSE 39 57 21 31 1006.3 - 0.0
22/06:52pm 26.3 20.7 15.4 51 6.6 SSE 39 57 21 31 1005.9 - 0.0
22/06:30pm 28.3 21.2 13.4 40 8.8 SSE 43 59 23 32 1005.5 - 0.0
22/06:24pm 29.2 22.5 13.4 38 9.4 SSE 41 59 22 32 1005.4 - 0.0
22/06:00pm 31.2 23.5 11.6 30 11.5 SSE 43 57 23 31 1004.9 1004.9 0.0
22/05:30pm 31.8 24.2 10.5 27 12.2 SSE 41 52 22 28 1004.6 - 0.0
22/05:00pm 33.2 25.8 9.9 24 13.3 S 39 56 21 30 1004.1 - 0.0
22/04:54pm 33.6 25.5 10.2 24 13.5 S 43 61 23 33 1004.3 - 0.0
22/04:30pm 33.4 26.0 12.4 28 12.5 SSE 43 54 23 29 1003.5 - 0.0
22/04:08pm 34.3 27.9 9.5 22 14.2 SE 33 57 18 31 1002.9 - 0.0
22/04:00pm 32.7 27.5 13.4 31 11.6 SE 33 46 18 25 1002.8 - 0.0
22/03:30pm 35.7 30.2 12.0 24 14.2 SE 32 48 17 26 1002.3 - 0.0
22/03:23pm 37.6 33.0 12.3 22 15.3 SE 28 46 15 25 1002.3 - 0.0
22/03:02pm 36.9 33.6 11.0 21 15.3 ESE 19 37 10 20 1002.9 - 0.0
22/03:00pm 42.8 38.9 8.5 13 20.1 NNW 19 41 10 22 1002.8 1002.8 0.0
22/02:45pm 41.8 36.5 9.9 15 18.9 WNW 28 46 15 25 1002.9 - 0.0
22/02:30pm 41.9 36.2 9.9 15 19.0 WNW 30 50 16 27 1003.1 - 0.0
22/02:04pm 41.7 35.0 9.8 15 18.9 NNW 35 54 19 29 1003.2 - 0.0
22/02:00pm 40.9 34.3 10.1 16 18.3 NNW 35 48 19 26 1003.3 - 0.0
22/01:33pm 41.0 34.5 10.2 16 18.3 N 35 54 19 29 1003.5 - 0.0
22/01:30pm 40.4 32.6 9.7 16 18.1 N 41 56 22 30 1003.6 - 0.0
22/01:25pm 40.7 34.0 10.9 17 17.9 NNW 37 56 20 30 1003.6 - 0.0
22/01:00pm 39.9 32.5 11.1 18 17.3 N 41 56 22 30 1003.8 - 0.0
22/12:42pm 38.9 31.3 11.9 20 16.3 N 43 61 23 33 1004.1 - 0.0
22/12:30pm 38.8 31.4 12.5 21 16.0 N 43 56 23 30 1004.2 - 0.0
22/12:00pm 37.7 30.3 12.3 22 15.4 N 43 61 23 33 1004.7 1004.7 0.0
22/11:57am 37.2 30.4 11.9 22 15.2 N 39 57 21 31 1004.7 - 0.0
22/11:30am 36.2 29.0 11.8 23 14.6 N 41 54 22 29 1005.1 - 0.0
22/11:00am 36.9 30.8 13.0 24 14.6 N 37 48 20 26 1005.3 - 0.0
22/10:30am 35.2 28.7 12.8 26 13.5 N 39 48 21 26 1005.7 - 0.0
22/10:18am 35.2 28.9 12.2 25 13.8 N 37 48 20 26 1005.6 - 0.0
22/10:00am 34.5 31.4 13.3 27 12.9 N 22 30 12 16 1005.6 - 0.0
22/09:30am 31.6 27.4 13.4 33 10.9 N 28 39 15 21 1005.8 - 0.0
22/09:00am 30.4 27.3 14.5 38 9.7 N 24 33 13 18 1006.1 1006.1 0.0
22/08:30am 27.0 23.3 15.1 48 7.2 N 28 35 15 19 1006.7 - 0.0
22/08:00am 26.8 24.2 13.9 45 7.7 N 20 24 11 13 1006.6 - 0.0
22/07:30am 22.2 22.2 9.7 45 6.8 CALM 0 6 0 3 1006.9 - 0.0
22/07:00am 21.2 19.5 9.8 48 6.1 NNW 9 13 5 7 1006.9 - 0.0
22/06:30am 20.2 19.2 11.1 56 5.0 WSW 7 11 4 6 1006.0 - 0.0
22/06:00am 20.0 18.5 8.4 47 6.1 NW 6 9 3 5 1005.9 1005.9 0.0
22/05:30am 19.8 18.0 9.4 51 5.5 W 9 11 5 6 1005.5 - 0.0
22/05:00am 19.7 17.9 9.3 51 5.5 WSW 9 9 5 5 1005.2 - 0.0
22/04:30am 19.3 16.6 10.3 56 4.8 SW 15 17 8 9 1004.8 - 0.0
22/04:00am 19.5 17.1 10.2 55 5.0 WSW 13 15 7 8 1005.1 - 0.0
22/03:30am 18.5 17.2 11.1 62 4.0 SW 9 13 5 7 1005.3 - 0.0
22/03:00am 18.2 17.1 10.6 61 4.1 SW 7 9 4 5 1005.8 1005.8 0.0
22/02:30am 18.6 17.5 9.9 57 4.6 WNW 6 7 3 4 1006.4 - 0.0
22/02:00am 18.1 18.0 9.5 57 4.5 CALM 0 6 0 3 1006.9 - 0.0
22/01:30am 19.2 19.3 10.2 56 4.8 CALM 0 0 0 0 1007.5 - 0.0
22/01:00am 19.4 18.7 10.1 55 5.0 S 4 7 2 4 1008.1 - 0.0
22/12:30am 20.1 20.1 12.3 61 4.4 SE 4 9 2 5 1008.3 - 0.0
22/12:00am 20.2 19.7 12.7 62 4.2 SE 7 11 4 6 1008.7 1008.7 0.0
 
Date/Time
CDT
Temp
°C
App
Temp
°C
Dew
Point
Rel
Hum
%
Delta-T
°C
Wind Press
QNH
hPa
Press
MSL
hPa
Rain
since 9 am
mm
Dir
 
Spd
km/h
Gust
km/h
Spd
kts
Gust
kts
21/11:30pm 20.8 19.7 13.0 61 4.4 ESE 11 13 6 7 1009.0 - 0.0
21/11:00pm 22.0 19.7 11.7 52 5.8 ESE 15 19 8 10 1009.2 - 0.0
21/10:30pm 21.2 18.6 10.7 51 5.7 ESE 15 19 8 10 1009.4 - 0.0
21/10:00pm 24.5 21.1 7.6 34 8.9 SE 15 20 8 11 1009.2 - 0.0
21/09:30pm 24.8 21.3 7.4 33 9.2 SE 15 19 8 10 1009.2 - 0.0
21/09:00pm 25.3 21.0 7.0 31 9.6 SE 19 24 10 13 1009.0 1009.0 0.0
21/08:30pm 25.1 21.1 4.8 27 10.2 SE 15 20 8 11 1009.0 - 0.0
21/08:00pm 25.8 21.2 3.7 24 10.9 SE 17 24 9 13 1008.9 - 0.0
21/07:30pm 26.9 22.3 5.8 26 10.9 SE 19 26 10 14 1008.9 - 0.0
21/07:00pm 27.5 22.7 4.5 23 11.7 SE 19 24 10 13 1008.7 - 0.0
21/06:30pm 29.8 25.2 3.7 19 13.3 SE 17 24 9 13 1008.7 - 0.0
21/06:00pm 29.8 24.5 2.1 17 13.7 SE 19 22 10 12 1008.7 1008.7 0.0
21/05:30pm 29.7 24.7 3.6 19 13.2 SE 19 22 10 12 1008.9 - 0.0
21/05:00pm 31.2 26.2 1.5 15 14.7 SE 17 20 9 11 1009.0 - 0.0
21/04:30pm 30.2 25.2 1.6 16 14.1 SE 17 22 9 12 1009.3 - 0.0
21/04:00pm 30.7 27.5 5.2 20 13.4 SE 11 20 6 11 1009.8 - 0.0
21/03:30pm 28.7 25.5 8.4 28 11.1 ESE 15 20 8 11 1010.3 - 0.0
21/03:00pm 28.7 25.7 10.8 33 10.2 SE 17 26 9 14 1010.6 1010.6 0.0
21/02:30pm 29.6 26.9 10.2 30 11.0 SE 15 20 8 11 1010.9 - 0.0
21/02:00pm 28.3 25.1 11.4 35 9.7 ESE 19 24 10 13 1011.1 - 0.0
21/01:30pm 28.3 26.8 9.1 30 10.6 ENE 7 11 4 6 1011.7 - 0.0
21/01:00pm 26.2 24.9 10.0 36 9.0 ESE 7 15 4 8 1012.2 - 0.0
21/12:30pm 25.4 23.9 10.4 39 8.3 SE 9 15 5 8 1012.6 - 0.0
21/12:00pm 24.0 22.8 11.7 46 7.0 SE 9 19 5 10 1013.1 1013.1 0.0
21/11:30am 23.9 23.6 13.2 51 6.2 ESE 7 11 4 6 1013.4 - 0.0
21/11:00am 22.0 21.2 12.8 56 5.2 E 9 13 5 7 1013.4 - 0.0
21/10:30am 21.6 20.5 13.2 59 4.8 ESE 11 17 6 9 1013.7 - 0.0
21/10:00am 20.9 20.0 13.6 63 4.2 SE 11 20 6 11 1013.7 - 0.0
21/09:30am 20.5 19.4 13.2 63 4.2 SSE 11 22 6 12 1013.9 - 0.0
21/09:00am 19.8 18.0 13.3 66 3.7 ESE 15 20 8 11 1013.7 1013.7 6.6
21/08:30am 19.2 17.4 13.4 69 3.3 SE 15 20 8 11 1013.7 - 6.6
21/08:00am 18.5 16.9 13.8 74 2.7 SSE 15 19 8 10 1013.9 - 6.6
21/07:30am 18.0 17.2 14.1 78 2.2 SSW 11 15 6 8 1013.6 - 6.6
21/07:00am 15.8 16.0 14.2 90 0.9 SW 6 7 3 4 1013.1 - 6.6
21/06:30am 15.2 14.6 13.4 89 1.0 SSW 9 11 5 6 1012.6 - 6.6
21/06:00am 16.1 15.6 13.9 87 1.2 S 9 11 5 6 1012.4 1012.4 6.6
21/05:30am 16.2 15.7 13.7 85 1.4 SSE 9 13 5 7 1012.0 - 6.6
21/05:02am 16.9 15.6 13.6 81 1.9 SE 13 17 7 9 1011.9 - 6.6
21/05:00am 17.0 15.7 13.7 81 1.9 SE 13 17 7 9 1011.9 - 6.6
21/04:30am 17.1 15.9 14.0 82 1.8 SSE 13 17 7 9 1011.9 - 6.6
21/04:00am 17.2 16.9 14.5 84 1.6 SSE 9 13 5 7 1012.3 - 6.6
21/03:31am 17.2 17.0 14.7 85 1.4 SE 9 17 5 9 1012.3 - 6.6
21/03:30am 17.2 16.6 14.7 85 1.4 SE 11 17 6 9 1012.2 - 6.6
21/03:00am 17.3 15.7 14.9 86 1.4 SSE 17 22 9 12 1012.1 1012.1 6.6
21/02:30am 17.5 16.4 15.3 87 1.3 S 15 19 8 10 1012.3 - 6.6
21/02:00am 17.6 15.7 15.2 86 1.4 SSE 19 22 10 12 1012.3 - 6.6
21/01:30am 18.0 16.1 15.3 84 1.6 SSE 19 24 10 13 1012.5 - 6.6
21/01:00am 17.6 15.4 15.0 85 1.5 SSE 20 28 11 15 1012.4 - 6.6
21/12:30am 17.6 15.4 14.9 84 1.6 SSE 20 24 11 13 1012.5 - 6.6
21/12:00am 18.1 16.1 15.4 84 1.6 SSE 20 24 11 13 1012.6 1012.6 6.6
 
Date/Time
CDT
Temp
°C
App
Temp
°C
Dew
Point
Rel
Hum
%
Delta-T
°C
Wind Press
QNH
hPa
Press
MSL
hPa
Rain
since 9 am
mm
Dir
 
Spd
km/h
Gust
km/h
Spd
kts
Gust
kts
20/11:30pm 18.1 15.7 15.4 84 1.6 SSE 22 30 12 16 1012.8 - 6.6
20/11:00pm 18.4 15.3 15.5 83 1.7 SSE 26 32 14 17 1012.5 - 6.6
20/10:30pm 18.5 15.0 15.4 82 1.8 SSE 28 35 15 19 1012.4 - 6.6
20/10:00pm 18.6 14.7 15.5 82 1.8 SSE 30 39 16 21 1012.1 - 6.6
20/09:30pm 18.9 15.8 15.6 81 1.9 SSE 26 39 14 21 1011.9 - 6.6
20/09:00pm 19.9 14.8 14.9 73 2.9 S 35 48 19 26 1010.9 1010.9 6.6
20/08:30pm 20.9 16.3 14.5 67 3.7 S 32 43 17 23 1010.3 - 6.6
20/08:00pm 21.9 18.2 17.5 76 2.7 SSE 33 44 18 24 1009.2 - 6.6
20/07:30pm 23.0 22.2 18.5 76 2.8 SE 20 30 11 16 1009.0 - 6.6

Other Formats:

Comma delimited format used in spreadsheet applications
http://www.bom.gov.au/fwo/IDS60801/IDS60801.95666.axf

JavaScript Object Notation format (JSON) in row-major order
http://www.bom.gov.au/fwo/IDS60801/IDS60801.95666.json